Terminal Aerodrome Forecast
Issued by NWS Jackson, KY

Home | Current Version | Previous Version | Text Only | Print | Product List | Glossary On
Versions: 1 2 3 4 5 6 7 8 9 10 11 12 13 14 15 16
827
FTUS43 KJKL 210539
TAFLOZ
TAF
KLOZ 210539Z 2106/2206 23006KT P6SM -SHRA VCTS BKN040 OVC070CB
     FM210900 25004KT P6SM VCSH OVC030
     FM211100 VRB03KT P6SM BKN020
     FM211600 VRB05KT P6SM BKN040=

USA.gov is the U.S. government's official web portal to all federal, state and local government web resources and services.